sensor_id;sensor_type;location;lat;lon;timestamp;P1;durP1;ratioP1;P2;durP2;ratioP2
5971;SDS011;3012;49.944;8.454;2023-10-13T00:01:03;17.30;;;5.65;;
5971;SDS011;3012;49.944;8.454;2023-10-13T00:03:35;11.02;;;5.75;;
5971;SDS011;3012;49.944;8.454;2023-10-13T00:06:05;8.98;;;5.88;;
5971;SDS011;3012;49.944;8.454;2023-10-13T00:08:35;9.35;;;6.10;;
5971;SDS011;3012;49.944;8.454;2023-10-13T00:11:05;9.57;;;5.57;;
5971;SDS011;3012;49.944;8.454;2023-10-13T00:13:37;12.65;;;5.53;;
5971;SDS011;3012;49.944;8.454;2023-10-13T00:16:09;6.72;;;5.20;;
5971;SDS011;3012;49.944;8.454;2023-10-13T00:18:44;9.07;;;5.90;;
5971;SDS011;3012;49.944;8.454;2023-10-13T00:21:13;10.05;;;5.65;;
5971;SDS011;3012;49.944;8.454;2023-10-13T00:23:46;7.78;;;5.00;;
5971;SDS011;3012;49.944;8.454;2023-10-13T00:26:20;8.85;;;5.72;;
5971;SDS011;3012;49.944;8.454;2023-10-13T00:28:54;8.00;;;4.75;;
5971;SDS011;3012;49.944;8.454;2023-10-13T00:31:35;9.13;;;5.25;;
5971;SDS011;3012;49.944;8.454;2023-10-13T00:34:05;11.38;;;5.85;;
5971;SDS011;3012;49.944;8.454;2023-10-13T00:36:47;9.82;;;5.40;;
5971;SDS011;3012;49.944;8.454;2023-10-13T00:39:38;9.13;;;5.70;;
5971;SDS011;3012;49.944;8.454;2023-10-13T00:42:10;9.55;;;5.53;;
5971;SDS011;3012;49.944;8.454;2023-10-13T00:44:46;14.90;;;5.90;;
5971;SDS011;3012;49.944;8.454;2023-10-13T00:47:16;12.27;;;5.90;;
5971;SDS011;3012;49.944;8.454;2023-10-13T00:49:59;13.00;;;5.60;;
5971;SDS011;3012;49.944;8.454;2023-10-13T00:52:28;9.60;;;5.15;;
5971;SDS011;3012;49.944;8.454;2023-10-13T00:54:56;18.52;;;5.97;;
5971;SDS011;3012;49.944;8.454;2023-10-13T00:57:27;12.57;;;5.32;;
5971;SDS011;3012;49.944;8.454;2023-10-13T00:59:56;7.05;;;5.47;;
5971;SDS011;3012;49.944;8.454;2023-10-13T01:02:25;8.73;;;4.57;;
5971;SDS011;3012;49.944;8.454;2023-10-13T01:05:04;7.82;;;4.57;;
5971;SDS011;3012;49.944;8.454;2023-10-13T01:07:37;10.18;;;6.00;;
5971;SDS011;3012;49.944;8.454;2023-10-13T01:10:09;13.02;;;5.38;;
5971;SDS011;3012;49.944;8.454;2023-10-13T01:12:39;14.27;;;5.60;;
5971;SDS011;3012;49.944;8.454;2023-10-13T01:15:09;8.93;;;4.93;;
5971;SDS011;3012;49.944;8.454;2023-10-13T01:17:37;7.57;;;5.10;;
5971;SDS011;3012;49.944;8.454;2023-10-13T01:20:05;9.13;;;5.63;;
5971;SDS011;3012;49.944;8.454;2023-10-13T01:22:39;15.70;;;6.47;;
5971;SDS011;3012;49.944;8.454;2023-10-13T01:25:09;11.48;;;5.43;;
5971;SDS011;3012;49.944;8.454;2023-10-13T01:27:40;7.18;;;4.97;;
5971;SDS011;3012;49.944;8.454;2023-10-13T01:30:08;5.78;;;4.97;;
5971;SDS011;3012;49.944;8.454;2023-10-13T01:32:39;9.10;;;5.72;;
5971;SDS011;3012;49.944;8.454;2023-10-13T01:35:11;11.00;;;4.93;;
5971;SDS011;3012;49.944;8.454;2023-10-13T01:37:39;13.43;;;5.55;;
5971;SDS011;3012;49.944;8.454;2023-10-13T01:40:07;6.68;;;4.57;;
5971;SDS011;3012;49.944;8.454;2023-10-13T01:42:38;14.68;;;5.50;;
5971;SDS011;3012;49.944;8.454;2023-10-13T01:45:06;9.70;;;5.10;;
5971;SDS011;3012;49.944;8.454;2023-10-13T01:47:34;14.73;;;5.10;;
5971;SDS011;3012;49.944;8.454;2023-10-13T01:50:02;5.63;;;4.57;;
5971;SDS011;3012;49.944;8.454;2023-10-13T01:52:40;10.20;;;5.20;;
5971;SDS011;3012;49.944;8.454;2023-10-13T01:55:10;10.73;;;6.13;;
5971;SDS011;3012;49.944;8.454;2023-10-13T01:57:38;9.68;;;4.60;;
5971;SDS011;3012;49.944;8.454;2023-10-13T02:00:09;15.40;;;5.47;;
5971;SDS011;3012;49.944;8.454;2023-10-13T02:02:45;12.77;;;5.50;;
5971;SDS011;3012;49.944;8.454;2023-10-13T02:05:16;9.88;;;5.25;;
5971;SDS011;3012;49.944;8.454;2023-10-13T02:07:44;12.77;;;6.03;;
5971;SDS011;3012;49.944;8.454;2023-10-13T02:10:13;7.05;;;5.30;;
5971;SDS011;3012;49.944;8.454;2023-10-13T02:12:41;9.27;;;5.47;;
5971;SDS011;3012;49.944;8.454;2023-10-13T02:15:11;11.05;;;5.32;;
5971;SDS011;3012;49.944;8.454;2023-10-13T02:17:41;11.93;;;5.10;;
5971;SDS011;3012;49.944;8.454;2023-10-13T02:20:11;8.90;;;5.28;;
5971;SDS011;3012;49.944;8.454;2023-10-13T02:22:41;13.45;;;5.50;;
5971;SDS011;3012;49.944;8.454;2023-10-13T02:25:17;14.25;;;5.57;;
5971;SDS011;3012;49.944;8.454;2023-10-13T02:28:02;12.25;;;6.25;;
5971;SDS011;3012;49.944;8.454;2023-10-13T02:30:37;14.18;;;6.03;;
5971;SDS011;3012;49.944;8.454;2023-10-13T02:33:04;7.47;;;6.68;;
5971;SDS011;3012;49.944;8.454;2023-10-13T02:35:33;10.68;;;5.75;;
5971;SDS011;3012;49.944;8.454;2023-10-13T02:38:02;9.32;;;5.80;;
5971;SDS011;3012;49.944;8.454;2023-10-13T02:40:38;15.18;;;7.28;;
5971;SDS011;3012;49.944;8.454;2023-10-13T02:43:06;13.73;;;6.00;;
5971;SDS011;3012;49.944;8.454;2023-10-13T02:45:34;12.27;;;5.55;;
5971;SDS011;3012;49.944;8.454;2023-10-13T02:48:03;18.10;;;7.15;;
5971;SDS011;3012;49.944;8.454;2023-10-13T02:50:39;10.38;;;5.70;;
5971;SDS011;3012;49.944;8.454;2023-10-13T02:53:11;11.82;;;6.70;;
5971;SDS011;3012;49.944;8.454;2023-10-13T02:55:53;17.30;;;6.05;;
5971;SDS011;3012;49.944;8.454;2023-10-13T02:58:22;14.38;;;7.40;;
5971;SDS011;3012;49.944;8.454;2023-10-13T03:01:08;12.55;;;6.88;;
5971;SDS011;3012;49.944;8.454;2023-10-13T03:03:46;16.67;;;6.78;;
5971;SDS011;3012;49.944;8.454;2023-10-13T03:06:18;10.07;;;6.28;;
5971;SDS011;3012;49.944;8.454;2023-10-13T03:08:51;8.80;;;5.35;;
5971;SDS011;3012;49.944;8.454;2023-10-13T03:11:20;11.70;;;6.88;;
5971;SDS011;3012;49.944;8.454;2023-10-13T03:13:51;11.57;;;6.75;;
5971;SDS011;3012;49.944;8.454;2023-10-13T03:16:19;16.55;;;7.00;;
5971;SDS011;3012;49.944;8.454;2023-10-13T03:18:48;10.38;;;6.25;;
5971;SDS011;3012;49.944;8.454;2023-10-13T03:21:22;14.02;;;6.78;;
5971;SDS011;3012;49.944;8.454;2023-10-13T03:23:58;8.90;;;6.15;;
5971;SDS011;3012;49.944;8.454;2023-10-13T03:26:34;13.73;;;7.22;;
5971;SDS011;3012;49.944;8.454;2023-10-13T03:29:02;14.30;;;7.57;;
5971;SDS011;3012;49.944;8.454;2023-10-13T03:31:34;14.32;;;6.82;;
5971;SDS011;3012;49.944;8.454;2023-10-13T03:34:05;15.07;;;7.65;;
5971;SDS011;3012;49.944;8.454;2023-10-13T03:36:38;10.15;;;6.70;;
5971;SDS011;3012;49.944;8.454;2023-10-13T03:39:24;15.00;;;7.93;;
5971;SDS011;3012;49.944;8.454;2023-10-13T03:41:58;24.83;;;7.80;;
5971;SDS011;3012;49.944;8.454;2023-10-13T03:44:28;23.38;;;7.13;;
5971;SDS011;3012;49.944;8.454;2023-10-13T03:46:57;15.35;;;7.10;;
5971;SDS011;3012;49.944;8.454;2023-10-13T03:49:35;10.65;;;6.38;;
5971;SDS011;3012;49.944;8.454;2023-10-13T03:52:04;20.27;;;7.60;;
5971;SDS011;3012;49.944;8.454;2023-10-13T03:54:37;9.75;;;6.38;;
5971;SDS011;3012;49.944;8.454;2023-10-13T03:57:08;12.10;;;6.78;;
5971;SDS011;3012;49.944;8.454;2023-10-13T03:59:38;17.40;;;8.23;;
5971;SDS011;3012;49.944;8.454;2023-10-13T04:02:07;7.45;;;6.30;;
5971;SDS011;3012;49.944;8.454;2023-10-13T04:04:44;15.43;;;8.02;;
5971;SDS011;3012;49.944;8.454;2023-10-13T04:07:17;12.63;;;7.22;;
5971;SDS011;3012;49.944;8.454;2023-10-13T04:10:02;13.10;;;6.90;;
5971;SDS011;3012;49.944;8.454;2023-10-13T04:12:53;12.77;;;6.10;;
5971;SDS011;3012;49.944;8.454;2023-10-13T04:15:39;16.80;;;7.30;;
5971;SDS011;3012;49.944;8.454;2023-10-13T04:18:28;17.05;;;7.22;;
5971;SDS011;3012;49.944;8.454;2023-10-13T04:21:16;10.20;;;6.28;;
5971;SDS011;3012;49.944;8.454;2023-10-13T04:24:06;11.05;;;6.05;;
5971;SDS011;3012;49.944;8.454;2023-10-13T04:26:51;9.93;;;6.63;;
5971;SDS011;3012;49.944;8.454;2023-10-13T04:29:38;8.73;;;6.28;;
5971;SDS011;3012;49.944;8.454;2023-10-13T04:32:17;10.60;;;7.40;;
5971;SDS011;3012;49.944;8.454;2023-10-13T04:34:55;10.13;;;6.40;;
5971;SDS011;3012;49.944;8.454;2023-10-13T04:37:34;10.38;;;6.00;;
5971;SDS011;3012;49.944;8.454;2023-10-13T04:40:17;12.07;;;7.18;;
5971;SDS011;3012;49.944;8.454;2023-10-13T04:42:51;9.48;;;6.28;;
5971;SDS011;3012;49.944;8.454;2023-10-13T04:45:24;16.33;;;6.95;;
5971;SDS011;3012;49.944;8.454;2023-10-13T04:48:13;13.20;;;7.85;;
5971;SDS011;3012;49.944;8.454;2023-10-13T04:50:44;12.25;;;6.85;;
5971;SDS011;3012;49.944;8.454;2023-10-13T04:53:14;19.27;;;7.20;;
5971;SDS011;3012;49.944;8.454;2023-10-13T04:55:57;12.07;;;7.53;;
5971;SDS011;3012;49.944;8.454;2023-10-13T04:58:55;12.45;;;7.00;;
5971;SDS011;3012;49.944;8.454;2023-10-13T05:01:41;12.45;;;7.53;;
5971;SDS011;3012;49.944;8.454;2023-10-13T05:04:31;14.13;;;7.50;;
5971;SDS011;3012;49.944;8.454;2023-10-13T05:07:25;15.23;;;6.78;;
5971;SDS011;3012;49.944;8.454;2023-10-13T05:10:23;14.90;;;7.15;;
5971;SDS011;3012;49.944;8.454;2023-10-13T05:13:08;12.07;;;6.72;;
5971;SDS011;3012;49.944;8.454;2023-10-13T05:16:04;12.20;;;7.43;;
5971;SDS011;3012;49.944;8.454;2023-10-13T05:18:53;15.05;;;6.93;;
5971;SDS011;3012;49.944;8.454;2023-10-13T05:21:38;11.15;;;6.47;;
5971;SDS011;3012;49.944;8.454;2023-10-13T05:24:24;21.48;;;7.07;;
5971;SDS011;3012;49.944;8.454;2023-10-13T05:27:09;8.82;;;6.03;;
5971;SDS011;3012;49.944;8.454;2023-10-13T05:29:55;12.00;;;6.50;;
5971;SDS011;3012;49.944;8.454;2023-10-13T05:32:41;13.68;;;6.75;;
5971;SDS011;3012;49.944;8.454;2023-10-13T05:35:30;12.60;;;6.80;;
5971;SDS011;3012;49.944;8.454;2023-10-13T05:38:16;13.77;;;6.60;;
5971;SDS011;3012;49.944;8.454;2023-10-13T05:41:02;9.68;;;6.95;;
5971;SDS011;3012;49.944;8.454;2023-10-13T05:43:51;15.35;;;7.32;;
5971;SDS011;3012;49.944;8.454;2023-10-13T05:46:37;10.98;;;7.22;;
5971;SDS011;3012;49.944;8.454;2023-10-13T05:49:19;12.18;;;7.55;;
5971;SDS011;3012;49.944;8.454;2023-10-13T05:52:06;12.52;;;6.40;;
5971;SDS011;3012;49.944;8.454;2023-10-13T05:54:46;14.55;;;6.40;;
5971;SDS011;3012;49.944;8.454;2023-10-13T05:57:32;8.10;;;6.68;;
5971;SDS011;3012;49.944;8.454;2023-10-13T06:00:17;9.30;;;6.35;;
5971;SDS011;3012;49.944;8.454;2023-10-13T06:03:03;15.80;;;7.63;;
5971;SDS011;3012;49.944;8.454;2023-10-13T06:05:49;12.02;;;7.88;;
5971;SDS011;3012;49.944;8.454;2023-10-13T06:08:35;13.93;;;6.60;;
5971;SDS011;3012;49.944;8.454;2023-10-13T06:11:22;10.18;;;6.57;;
5971;SDS011;3012;49.944;8.454;2023-10-13T06:14:07;10.00;;;7.05;;
5971;SDS011;3012;49.944;8.454;2023-10-13T06:16:53;11.32;;;7.20;;
5971;SDS011;3012;49.944;8.454;2023-10-13T06:19:40;14.00;;;6.97;;
5971;SDS011;3012;49.944;8.454;2023-10-13T06:22:27;13.38;;;7.28;;
5971;SDS011;3012;49.944;8.454;2023-10-13T06:25:14;11.32;;;7.07;;
5971;SDS011;3012;49.944;8.454;2023-10-13T06:27:59;8.25;;;6.60;;
5971;SDS011;3012;49.944;8.454;2023-10-13T06:30:53;12.13;;;6.78;;
5971;SDS011;3012;49.944;8.454;2023-10-13T06:33:23;11.88;;;6.38;;
5971;SDS011;3012;49.944;8.454;2023-10-13T06:35:56;11.52;;;6.53;;
5971;SDS011;3012;49.944;8.454;2023-10-13T06:38:24;9.57;;;5.95;;
5971;SDS011;3012;49.944;8.454;2023-10-13T06:41:03;9.57;;;6.43;;
5971;SDS011;3012;49.944;8.454;2023-10-13T06:43:33;17.80;;;6.85;;
5971;SDS011;3012;49.944;8.454;2023-10-13T06:46:06;12.15;;;6.90;;
5971;SDS011;3012;49.944;8.454;2023-10-13T06:48:41;12.02;;;6.88;;
5971;SDS011;3012;49.944;8.454;2023-10-13T06:51:10;12.70;;;6.72;;
5971;SDS011;3012;49.944;8.454;2023-10-13T06:53:44;12.80;;;7.07;;
5971;SDS011;3012;49.944;8.454;2023-10-13T06:56:15;8.45;;;6.63;;
5971;SDS011;3012;49.944;8.454;2023-10-13T06:58:48;19.70;;;6.20;;
5971;SDS011;3012;49.944;8.454;2023-10-13T07:01:16;11.55;;;6.85;;
5971;SDS011;3012;49.944;8.454;2023-10-13T07:03:48;11.40;;;6.57;;
5971;SDS011;3012;49.944;8.454;2023-10-13T07:06:19;13.88;;;7.57;;
5971;SDS011;3012;49.944;8.454;2023-10-13T07:08:48;9.05;;;6.63;;
5971;SDS011;3012;49.944;8.454;2023-10-13T07:11:23;16.95;;;7.40;;
5971;SDS011;3012;49.944;8.454;2023-10-13T07:14:00;10.55;;;6.82;;
5971;SDS011;3012;49.944;8.454;2023-10-13T07:16:42;11.90;;;6.80;;
5971;SDS011;3012;49.944;8.454;2023-10-13T07:19:13;8.30;;;6.50;;
5971;SDS011;3012;49.944;8.454;2023-10-13T07:21:47;13.85;;;6.90;;
5971;SDS011;3012;49.944;8.454;2023-10-13T07:24:22;7.70;;;5.95;;
5971;SDS011;3012;49.944;8.454;2023-10-13T07:26:52;13.75;;;7.53;;
5971;SDS011;3012;49.944;8.454;2023-10-13T07:29:29;12.23;;;7.07;;
5971;SDS011;3012;49.944;8.454;2023-10-13T07:32:00;14.15;;;7.22;;
5971;SDS011;3012;49.944;8.454;2023-10-13T07:34:29;18.85;;;7.25;;
5971;SDS011;3012;49.944;8.454;2023-10-13T07:36:59;13.68;;;7.28;;
5971;SDS011;3012;49.944;8.454;2023-10-13T07:39:28;11.75;;;6.90;;
5971;SDS011;3012;49.944;8.454;2023-10-13T07:42:02;12.15;;;6.70;;
5971;SDS011;3012;49.944;8.454;2023-10-13T07:44:36;12.40;;;6.72;;
5971;SDS011;3012;49.944;8.454;2023-10-13T07:47:12;26.63;;;13.15;;
5971;SDS011;3012;49.944;8.454;2023-10-13T07:49:43;19.23;;;10.13;;
5971;SDS011;3012;49.944;8.454;2023-10-13T07:52:12;16.08;;;8.07;;
5971;SDS011;3012;49.944;8.454;2023-10-13T07:55:03;16.77;;;7.65;;
5971;SDS011;3012;49.944;8.454;2023-10-13T07:57:42;13.35;;;7.45;;
5971;SDS011;3012;49.944;8.454;2023-10-13T08:00:21;14.90;;;7.80;;
5971;SDS011;3012;49.944;8.454;2023-10-13T08:02:58;10.30;;;6.72;;
5971;SDS011;3012;49.944;8.454;2023-10-13T08:05:36;13.07;;;7.43;;
5971;SDS011;3012;49.944;8.454;2023-10-13T08:08:09;6.63;;;5.78;;
5971;SDS011;3012;49.944;8.454;2023-10-13T08:10:41;14.00;;;6.93;;
5971;SDS011;3012;49.944;8.454;2023-10-13T08:13:13;13.95;;;7.15;;
5971;SDS011;3012;49.944;8.454;2023-10-13T08:15:42;11.32;;;7.18;;
5971;SDS011;3012;49.944;8.454;2023-10-13T08:18:14;14.75;;;6.53;;
5971;SDS011;3012;49.944;8.454;2023-10-13T08:20:56;13.73;;;7.13;;
5971;SDS011;3012;49.944;8.454;2023-10-13T08:23:30;13.57;;;7.43;;
5971;SDS011;3012;49.944;8.454;2023-10-13T08:26:16;17.55;;;7.88;;
5971;SDS011;3012;49.944;8.454;2023-10-13T08:28:59;11.63;;;6.82;;
5971;SDS011;3012;49.944;8.454;2023-10-13T08:31:49;10.80;;;6.90;;
5971;SDS011;3012;49.944;8.454;2023-10-13T08:34:40;11.23;;;7.43;;
5971;SDS011;3012;49.944;8.454;2023-10-13T08:37:26;12.25;;;6.88;;
5971;SDS011;3012;49.944;8.454;2023-10-13T08:39:59;12.07;;;6.35;;
5971;SDS011;3012;49.944;8.454;2023-10-13T08:42:53;9.05;;;6.00;;
5971;SDS011;3012;49.944;8.454;2023-10-13T08:45:39;13.63;;;6.63;;
5971;SDS011;3012;49.944;8.454;2023-10-13T08:48:20;16.95;;;7.50;;
5971;SDS011;3012;49.944;8.454;2023-10-13T08:50:57;14.55;;;6.75;;
5971;SDS011;3012;49.944;8.454;2023-10-13T08:53:36;10.68;;;6.72;;
5971;SDS011;3012;49.944;8.454;2023-10-13T08:56:12;10.32;;;6.50;;
5971;SDS011;3012;49.944;8.454;2023-10-13T08:58:45;8.88;;;6.18;;
5971;SDS011;3012;49.944;8.454;2023-10-13T09:01:34;10.68;;;6.15;;
5971;SDS011;3012;49.944;8.454;2023-10-13T09:04:05;13.38;;;5.78;;
5971;SDS011;3012;49.944;8.454;2023-10-13T09:06:48;8.13;;;5.95;;
5971;SDS011;3012;49.944;8.454;2023-10-13T09:09:45;15.57;;;6.32;;
5971;SDS011;3012;49.944;8.454;2023-10-13T09:12:26;9.27;;;5.55;;
5971;SDS011;3012;49.944;8.454;2023-10-13T09:15:06;8.65;;;5.70;;
5971;SDS011;3012;49.944;8.454;2023-10-13T09:17:48;15.82;;;7.10;;
5971;SDS011;3012;49.944;8.454;2023-10-13T09:20:27;27.65;;;15.95;;
5971;SDS011;3012;49.944;8.454;2023-10-13T09:23:10;16.80;;;5.95;;
5971;SDS011;3012;49.944;8.454;2023-10-13T09:25:39;9.88;;;5.07;;
5971;SDS011;3012;49.944;8.454;2023-10-13T09:28:20;11.68;;;4.97;;
5971;SDS011;3012;49.944;8.454;2023-10-13T09:30:49;10.68;;;5.20;;
5971;SDS011;3012;49.944;8.454;2023-10-13T09:33:26;10.93;;;5.22;;
5971;SDS011;3012;49.944;8.454;2023-10-13T09:35:59;8.27;;;4.15;;
5971;SDS011;3012;49.944;8.454;2023-10-13T09:38:32;6.43;;;4.75;;
5971;SDS011;3012;49.944;8.454;2023-10-13T09:41:00;6.57;;;5.10;;
5971;SDS011;3012;49.944;8.454;2023-10-13T09:43:44;10.93;;;4.53;;
5971;SDS011;3012;49.944;8.454;2023-10-13T09:46:13;7.05;;;4.65;;
5971;SDS011;3012;49.944;8.454;2023-10-13T09:48:51;9.15;;;4.03;;
5971;SDS011;3012;49.944;8.454;2023-10-13T09:51:31;6.07;;;4.20;;
5971;SDS011;3012;49.944;8.454;2023-10-13T09:54:00;7.55;;;4.05;;
5971;SDS011;3012;49.944;8.454;2023-10-13T09:56:56;9.32;;;3.88;;
5971;SDS011;3012;49.944;8.454;2023-10-13T09:59:30;7.80;;;4.30;;
5971;SDS011;3012;49.944;8.454;2023-10-13T10:02:01;9.55;;;4.82;;
5971;SDS011;3012;49.944;8.454;2023-10-13T10:04:36;4.53;;;4.07;;
5971;SDS011;3012;49.944;8.454;2023-10-13T10:07:10;13.48;;;4.40;;
5971;SDS011;3012;49.944;8.454;2023-10-13T10:09:55;14.63;;;4.00;;
5971;SDS011;3012;49.944;8.454;2023-10-13T10:12:29;4.65;;;3.72;;
5971;SDS011;3012;49.944;8.454;2023-10-13T10:15:06;7.32;;;4.20;;
5971;SDS011;3012;49.944;8.454;2023-10-13T10:17:46;10.52;;;4.45;;
5971;SDS011;3012;49.944;8.454;2023-10-13T10:20:27;4.35;;;3.92;;
5971;SDS011;3012;49.944;8.454;2023-10-13T10:23:06;5.40;;;3.90;;
5971;SDS011;3012;49.944;8.454;2023-10-13T10:25:38;10.52;;;4.32;;
5971;SDS011;3012;49.944;8.454;2023-10-13T10:28:11;9.85;;;3.85;;
5971;SDS011;3012;49.944;8.454;2023-10-13T10:30:42;6.55;;;4.03;;
5971;SDS011;3012;49.944;8.454;2023-10-13T10:33:11;4.53;;;3.75;;
5971;SDS011;3012;49.944;8.454;2023-10-13T10:35:45;10.70;;;3.80;;
5971;SDS011;3012;49.944;8.454;2023-10-13T10:38:14;5.10;;;4.00;;
5971;SDS011;3012;49.944;8.454;2023-10-13T10:40:51;7.05;;;3.95;;
5971;SDS011;3012;49.944;8.454;2023-10-13T10:43:25;12.48;;;4.43;;
5971;SDS011;3012;49.944;8.454;2023-10-13T10:45:59;7.60;;;3.17;;
5971;SDS011;3012;49.944;8.454;2023-10-13T10:48:27;12.05;;;4.18;;
5971;SDS011;3012;49.944;8.454;2023-10-13T10:51:06;9.95;;;4.13;;
5971;SDS011;3012;49.944;8.454;2023-10-13T10:53:40;6.55;;;4.45;;
5971;SDS011;3012;49.944;8.454;2023-10-13T10:56:13;6.32;;;4.22;;
5971;SDS011;3012;49.944;8.454;2023-10-13T10:58:52;5.57;;;3.58;;
5971;SDS011;3012;49.944;8.454;2023-10-13T11:01:27;7.47;;;4.13;;
5971;SDS011;3012;49.944;8.454;2023-10-13T11:04:05;9.15;;;4.47;;
5971;SDS011;3012;49.944;8.454;2023-10-13T11:06:48;8.75;;;4.38;;
5971;SDS011;3012;49.944;8.454;2023-10-13T11:09:25;6.80;;;4.50;;
5971;SDS011;3012;49.944;8.454;2023-10-13T11:12:11;10.45;;;3.63;;
5971;SDS011;3012;49.944;8.454;2023-10-13T11:14:43;5.93;;;4.07;;
5971;SDS011;3012;49.944;8.454;2023-10-13T11:17:18;6.47;;;4.32;;
5971;SDS011;3012;49.944;8.454;2023-10-13T11:19:52;4.85;;;3.22;;
5971;SDS011;3012;49.944;8.454;2023-10-13T11:22:22;6.13;;;3.92;;
5971;SDS011;3012;49.944;8.454;2023-10-13T11:24:59;8.55;;;3.47;;
5971;SDS011;3012;49.944;8.454;2023-10-13T11:27:35;6.50;;;3.47;;
5971;SDS011;3012;49.944;8.454;2023-10-13T11:30:22;8.40;;;3.72;;
5971;SDS011;3012;49.944;8.454;2023-10-13T11:32:56;6.28;;;4.32;;
5971;SDS011;3012;49.944;8.454;2023-10-13T11:35:25;7.70;;;4.35;;
5971;SDS011;3012;49.944;8.454;2023-10-13T11:38:16;8.05;;;3.60;;
5971;SDS011;3012;49.944;8.454;2023-10-13T11:40:56;9.18;;;4.47;;
5971;SDS011;3012;49.944;8.454;2023-10-13T11:43:35;7.78;;;4.13;;
5971;SDS011;3012;49.944;8.454;2023-10-13T11:46:20;9.13;;;3.97;;
5971;SDS011;3012;49.944;8.454;2023-10-13T11:49:03;6.85;;;4.15;;
5971;SDS011;3012;49.944;8.454;2023-10-13T11:51:43;6.13;;;3.58;;
5971;SDS011;3012;49.944;8.454;2023-10-13T11:54:13;10.70;;;9.32;;
5971;SDS011;3012;49.944;8.454;2023-10-13T11:56:42;42.72;;;26.35;;
5971;SDS011;3012;49.944;8.454;2023-10-13T11:59:11;7.68;;;5.18;;
5971;SDS011;3012;49.944;8.454;2023-10-13T12:01:44;6.95;;;3.97;;
5971;SDS011;3012;49.944;8.454;2023-10-13T12:04:31;4.25;;;3.75;;
5971;SDS011;3012;49.944;8.454;2023-10-13T12:07:08;10.15;;;3.47;;
5971;SDS011;3012;49.944;8.454;2023-10-13T12:09:45;6.15;;;4.05;;
5971;SDS011;3012;49.944;8.454;2023-10-13T12:12:30;10.90;;;3.45;;
5971;SDS011;3012;49.944;8.454;2023-10-13T12:15:06;9.88;;;3.90;;
5971;SDS011;3012;49.944;8.454;2023-10-13T12:17:41;5.80;;;3.97;;
5971;SDS011;3012;49.944;8.454;2023-10-13T12:20:12;9.50;;;3.80;;
5971;SDS011;3012;49.944;8.454;2023-10-13T12:22:45;4.95;;;3.65;;
5971;SDS011;3012;49.944;8.454;2023-10-13T12:25:23;8.88;;;4.00;;
5971;SDS011;3012;49.944;8.454;2023-10-13T12:28:11;8.68;;;3.30;;
5971;SDS011;3012;49.944;8.454;2023-10-13T12:30:45;6.78;;;3.78;;
5971;SDS011;3012;49.944;8.454;2023-10-13T12:33:16;5.97;;;3.47;;
5971;SDS011;3012;49.944;8.454;2023-10-13T12:35:57;3.75;;;3.45;;
5971;SDS011;3012;49.944;8.454;2023-10-13T12:38:56;5.78;;;3.28;;
5971;SDS011;3012;49.944;8.454;2023-10-13T12:41:55;7.18;;;3.40;;
5971;SDS011;3012;49.944;8.454;2023-10-13T12:44:40;5.03;;;3.08;;
5971;SDS011;3012;49.944;8.454;2023-10-13T12:47:26;4.38;;;3.13;;
5971;SDS011;3012;49.944;8.454;2023-10-13T12:50:13;6.35;;;2.65;;
5971;SDS011;3012;49.944;8.454;2023-10-13T12:52:52;3.95;;;2.83;;
5971;SDS011;3012;49.944;8.454;2023-10-13T12:55:20;11.25;;;3.28;;
5971;SDS011;3012;49.944;8.454;2023-10-13T12:57:52;2.97;;;2.63;;
5971;SDS011;3012;49.944;8.454;2023-10-13T13:00:21;9.00;;;3.05;;
5971;SDS011;3012;49.944;8.454;2023-10-13T13:02:52;6.30;;;3.63;;
5971;SDS011;3012;49.944;8.454;2023-10-13T13:05:23;3.25;;;2.90;;
5971;SDS011;3012;49.944;8.454;2023-10-13T13:07:57;3.65;;;2.42;;
5971;SDS011;3012;49.944;8.454;2023-10-13T13:10:25;4.57;;;2.58;;
5971;SDS011;3012;49.944;8.454;2023-10-13T13:13:04;9.82;;;3.45;;
5971;SDS011;3012;49.944;8.454;2023-10-13T13:15:32;4.07;;;3.22;;
5971;SDS011;3012;49.944;8.454;2023-10-13T13:18:00;5.50;;;3.03;;
5971;SDS011;3012;49.944;8.454;2023-10-13T13:20:37;8.52;;;2.80;;
5971;SDS011;3012;49.944;8.454;2023-10-13T13:23:18;3.60;;;2.90;;
5971;SDS011;3012;49.944;8.454;2023-10-13T13:25:47;3.42;;;2.33;;
5971;SDS011;3012;49.944;8.454;2023-10-13T13:28:17;4.22;;;3.00;;
5971;SDS011;3012;49.944;8.454;2023-10-13T13:30:45;6.53;;;3.50;;
5971;SDS011;3012;49.944;8.454;2023-10-13T13:33:17;5.82;;;3.00;;
5971;SDS011;3012;49.944;8.454;2023-10-13T13:35:52;4.03;;;2.63;;
5971;SDS011;3012;49.944;8.454;2023-10-13T13:38:21;4.20;;;2.70;;
5971;SDS011;3012;49.944;8.454;2023-10-13T13:40:56;4.28;;;2.70;;
5971;SDS011;3012;49.944;8.454;2023-10-13T13:43:26;7.80;;;2.50;;
5971;SDS011;3012;49.944;8.454;2023-10-13T13:46:05;7.85;;;3.20;;
5971;SDS011;3012;49.944;8.454;2023-10-13T13:48:36;6.72;;;2.38;;
5971;SDS011;3012;49.944;8.454;2023-10-13T13:51:05;5.43;;;2.85;;
5971;SDS011;3012;49.944;8.454;2023-10-13T13:53:40;4.60;;;2.88;;
5971;SDS011;3012;49.944;8.454;2023-10-13T13:56:11;8.52;;;3.45;;
5971;SDS011;3012;49.944;8.454;2023-10-13T13:58:44;7.00;;;2.95;;
5971;SDS011;3012;49.944;8.454;2023-10-13T14:01:13;4.78;;;2.70;;
5971;SDS011;3012;49.944;8.454;2023-10-13T14:03:42;9.52;;;2.85;;
5971;SDS011;3012;49.944;8.454;2023-10-13T14:06:13;8.35;;;2.95;;
5971;SDS011;3012;49.944;8.454;2023-10-13T14:08:48;5.18;;;3.22;;
5971;SDS011;3012;49.944;8.454;2023-10-13T14:11:17;12.65;;;3.65;;
5971;SDS011;3012;49.944;8.454;2023-10-13T14:14:04;5.13;;;2.83;;
5971;SDS011;3012;49.944;8.454;2023-10-13T14:16:39;7.70;;;3.45;;
5971;SDS011;3012;49.944;8.454;2023-10-13T14:19:12;8.15;;;3.78;;
5971;SDS011;3012;49.944;8.454;2023-10-13T14:21:53;6.20;;;2.80;;
5971;SDS011;3012;49.944;8.454;2023-10-13T14:24:21;6.40;;;3.10;;
5971;SDS011;3012;49.944;8.454;2023-10-13T14:26:55;12.70;;;3.08;;
5971;SDS011;3012;49.944;8.454;2023-10-13T14:29:24;5.15;;;2.60;;
5971;SDS011;3012;49.944;8.454;2023-10-13T14:31:54;9.20;;;2.80;;
5971;SDS011;3012;49.944;8.454;2023-10-13T14:34:22;3.28;;;2.85;;
5971;SDS011;3012;49.944;8.454;2023-10-13T14:36:51;4.63;;;2.97;;
5971;SDS011;3012;49.944;8.454;2023-10-13T14:39:20;3.78;;;2.47;;
5971;SDS011;3012;49.944;8.454;2023-10-13T14:41:56;6.43;;;2.80;;
5971;SDS011;3012;49.944;8.454;2023-10-13T14:44:27;6.05;;;2.60;;
5971;SDS011;3012;49.944;8.454;2023-10-13T14:46:55;4.57;;;2.47;;
5971;SDS011;3012;49.944;8.454;2023-10-13T14:49:23;2.92;;;2.03;;
5971;SDS011;3012;49.944;8.454;2023-10-13T14:51:51;6.68;;;2.53;;
5971;SDS011;3012;49.944;8.454;2023-10-13T14:54:21;4.78;;;2.47;;
5971;SDS011;3012;49.944;8.454;2023-10-13T14:56:59;10.45;;;2.80;;
5971;SDS011;3012;49.944;8.454;2023-10-13T14:59:29;8.13;;;2.60;;
5971;SDS011;3012;49.944;8.454;2023-10-13T15:02:00;5.10;;;2.25;;
5971;SDS011;3012;49.944;8.454;2023-10-13T15:04:29;4.13;;;2.35;;
5971;SDS011;3012;49.944;8.454;2023-10-13T15:06:59;4.07;;;2.13;;
5971;SDS011;3012;49.944;8.454;2023-10-13T15:09:30;4.30;;;2.30;;
5971;SDS011;3012;49.944;8.454;2023-10-13T15:11:59;5.00;;;2.53;;
5971;SDS011;3012;49.944;8.454;2023-10-13T15:14:33;7.78;;;3.00;;
5971;SDS011;3012;49.944;8.454;2023-10-13T15:17:03;4.22;;;2.47;;
5971;SDS011;3012;49.944;8.454;2023-10-13T15:19:32;3.47;;;2.67;;
5971;SDS011;3012;49.944;8.454;2023-10-13T15:22:02;10.00;;;2.33;;
5971;SDS011;3012;49.944;8.454;2023-10-13T15:24:33;4.47;;;2.22;;
5971;SDS011;3012;49.944;8.454;2023-10-13T15:27:10;6.18;;;2.47;;
5971;SDS011;3012;49.944;8.454;2023-10-13T15:29:40;8.30;;;2.50;;
5971;SDS011;3012;49.944;8.454;2023-10-13T15:32:08;3.03;;;1.90;;
5971;SDS011;3012;49.944;8.454;2023-10-13T15:34:54;9.00;;;2.45;;
5971;SDS011;3012;49.944;8.454;2023-10-13T15:37:24;5.15;;;2.42;;
5971;SDS011;3012;49.944;8.454;2023-10-13T15:39:53;11.43;;;2.85;;
5971;SDS011;3012;49.944;8.454;2023-10-13T15:42:24;9.65;;;2.70;;
5971;SDS011;3012;49.944;8.454;2023-10-13T15:44:53;3.13;;;2.50;;
5971;SDS011;3012;49.944;8.454;2023-10-13T15:47:21;9.10;;;2.28;;
5971;SDS011;3012;49.944;8.454;2023-10-13T15:50:09;7.65;;;2.90;;
5971;SDS011;3012;49.944;8.454;2023-10-13T15:52:41;4.30;;;2.80;;
5971;SDS011;3012;49.944;8.454;2023-10-13T15:55:12;3.78;;;2.53;;
5971;SDS011;3012;49.944;8.454;2023-10-13T15:57:45;10.15;;;3.13;;
5971;SDS011;3012;49.944;8.454;2023-10-13T16:00:21;3.92;;;1.95;;